createdAt,value
2023-05-08T00:02:05.580Z,11.68
2023-05-08T00:07:07.316Z,12.25
2023-05-08T00:12:09.103Z,13.18
2023-05-08T00:17:10.885Z,12.48
2023-05-08T00:22:12.773Z,11.80
2023-05-08T00:27:14.681Z,12.32
2023-05-08T00:32:17.343Z,13.23
2023-05-08T00:37:19.220Z,11.15
2023-05-08T00:42:21.112Z,11.55
2023-05-08T00:47:23.543Z,11.05
2023-05-08T00:52:27.861Z,14.68
2023-05-08T00:57:32.462Z,14.52
2023-05-08T01:02:36.111Z,12.50
2023-05-08T01:07:39.091Z,10.88
2023-05-08T01:13:06.498Z,14.90
2023-05-08T01:18:31.251Z,11.50
2023-05-08T01:23:49.798Z,9.57
2023-05-08T01:29:23.556Z,10.20
2023-05-08T01:34:31.252Z,12.07
2023-05-08T01:40:03.352Z,10.90
2023-05-08T01:45:16.394Z,12.15
2023-05-08T01:50:25.828Z,11.70
2023-05-08T01:55:34.684Z,10.05
2023-05-08T02:00:39.608Z,11.35
2023-05-08T02:05:42.981Z,11.20
2023-05-08T02:10:48.438Z,11.48
2023-05-08T02:15:52.732Z,12.35
2023-05-08T02:20:57.743Z,12.93
2023-05-08T02:26:01.618Z,11.85
2023-05-08T02:31:05.660Z,14.00
2023-05-08T02:36:10.907Z,13.80
2023-05-08T02:41:14.347Z,10.40
2023-05-08T02:46:21.138Z,12.60
2023-05-08T02:51:37.887Z,11.35
2023-05-08T02:56:47.520Z,15.18
2023-05-08T03:01:52.113Z,10.37
2023-05-08T03:06:56.900Z,13.30
2023-05-08T03:12:06.520Z,12.93
2023-05-08T03:17:12.792Z,10.27
2023-05-08T03:22:16.463Z,10.27
2023-05-08T03:27:20.488Z,9.60
2023-05-08T03:32:26.136Z,10.57
2023-05-08T03:37:28.832Z,10.13
2023-05-08T03:42:31.470Z,10.80
2023-05-08T03:47:37.160Z,10.73
2023-05-08T03:52:39.295Z,8.73
2023-05-08T03:57:50.477Z,11.25
2023-05-08T04:03:11.686Z,12.38
2023-05-08T04:08:21.534Z,12.60
2023-05-08T04:13:28.739Z,12.20
2023-05-08T04:18:32.613Z,11.15
2023-05-08T04:23:38.861Z,12.20
2023-05-08T04:28:40.897Z,12.93
2023-05-08T04:33:46.752Z,11.60
2023-05-08T04:38:48.864Z,12.75
2023-05-08T04:43:50.734Z,12.27
2023-05-08T04:48:53.447Z,12.00
2023-05-08T04:53:55.363Z,13.27
2023-05-08T04:58:57.805Z,13.43
2023-05-08T05:03:59.730Z,12.95
2023-05-08T05:09:01.729Z,12.23
2023-05-08T05:14:03.628Z,11.40
2023-05-08T05:19:05.668Z,11.68
2023-05-08T05:24:08.084Z,11.98
2023-05-08T05:29:11.375Z,11.75
2023-05-08T05:34:14.009Z,11.82
2023-05-08T05:39:16.470Z,11.68
2023-05-08T05:44:18.460Z,12.60
2023-05-08T05:49:20.451Z,11.25
2023-05-08T05:54:22.495Z,14.23
2023-05-08T05:59:24.898Z,13.60
2023-05-08T06:04:27.025Z,10.70
2023-05-08T06:09:29.168Z,11.75
2023-05-08T06:14:31.136Z,14.70
2023-05-08T06:19:33.563Z,13.65
2023-05-08T06:24:36.534Z,13.95
2023-05-08T06:29:38.433Z,13.15
2023-05-08T06:34:40.333Z,13.40
2023-05-08T06:39:42.105Z,12.88
2023-05-08T06:44:43.879Z,14.18
2023-05-08T06:49:46.259Z,13.98
2023-05-08T06:54:48.273Z,11.73
2023-05-08T06:59:50.032Z,12.48
2023-05-08T07:04:51.877Z,12.75
2023-05-08T07:09:53.625Z,11.07
2023-05-08T07:14:56.651Z,11.52
2023-05-08T07:19:59.782Z,12.85
2023-05-08T07:25:01.739Z,12.30
2023-05-08T07:30:04.490Z,12.27
2023-05-08T07:35:10.484Z,11.48
2023-05-08T07:40:12.864Z,12.05
2023-05-08T07:45:14.876Z,12.07
2023-05-08T07:50:17.618Z,12.60
2023-05-08T07:55:20.088Z,13.07
2023-05-08T08:00:22.033Z,14.02
2023-05-08T08:05:23.867Z,12.07
2023-05-08T08:10:26.078Z,11.95
2023-05-08T08:15:31.621Z,11.73
2023-05-08T08:20:33.831Z,12.48
2023-05-08T08:25:35.744Z,10.60
2023-05-08T08:30:38.248Z,10.57
2023-05-08T08:35:40.345Z,10.90
2023-05-08T08:40:42.471Z,11.35
2023-05-08T08:45:44.329Z,12.32
2023-05-08T08:50:51.221Z,13.20
2023-05-08T08:55:56.045Z,12.02
2023-05-08T09:01:00.468Z,12.63
2023-05-08T09:06:03.261Z,11.02
2023-05-08T09:11:05.082Z,12.80
2023-05-08T09:16:07.058Z,13.65
2023-05-08T09:21:09.057Z,13.35
2023-05-08T09:26:10.999Z,12.32
2023-05-08T09:31:12.766Z,12.90
2023-05-08T09:36:26.783Z,12.27
2023-05-08T09:41:29.959Z,12.70
2023-05-08T09:46:34.074Z,12.75
2023-05-08T09:51:35.815Z,12.52
2023-05-08T09:56:39.719Z,10.32
2023-05-08T10:01:42.129Z,10.35
2023-05-08T10:06:44.154Z,10.07
2023-05-08T10:11:53.225Z,9.30
2023-05-08T10:16:55.433Z,9.60
2023-05-08T10:22:01.327Z,8.88
2023-05-08T10:27:07.448Z,9.10
2023-05-08T10:32:10.754Z,8.55
2023-05-08T10:37:13.215Z,9.13
2023-05-08T10:42:15.326Z,9.07
2023-05-08T10:47:26.699Z,8.88
2023-05-08T10:52:54.157Z,9.38
2023-05-08T10:58:06.465Z,8.88
2023-05-08T11:03:19.902Z,8.82
2023-05-08T11:08:27.769Z,9.18
2023-05-08T11:13:34.163Z,9.07
2023-05-08T11:18:48.378Z,9.15
2023-05-08T11:24:00.413Z,8.68
2023-05-08T11:29:02.211Z,9.70
2023-05-08T11:34:07.800Z,10.20
2023-05-08T11:39:17.346Z,10.10
2023-05-08T11:44:21.456Z,11.00
2023-05-08T11:49:29.123Z,10.63
2023-05-08T11:54:32.080Z,10.43
2023-05-08T11:59:37.698Z,10.70
2023-05-08T12:04:48.799Z,10.20
2023-05-08T12:09:50.604Z,10.65
2023-05-08T12:14:52.521Z,10.60
2023-05-08T12:19:59.046Z,10.10
2023-05-08T12:25:02.878Z,10.18
2023-05-08T12:30:09.784Z,9.85
2023-05-08T12:35:14.064Z,10.02
2023-05-08T12:40:34.653Z,9.27
2023-05-08T12:45:42.463Z,10.20
2023-05-08T12:50:47.363Z,9.40
2023-05-08T12:55:57.593Z,10.52
2023-05-08T13:06:22.507Z,9.73
2023-05-08T13:11:33.140Z,10.10
2023-05-08T13:16:51.998Z,9.13
2023-05-08T13:21:54.343Z,9.70
2023-05-08T13:26:56.151Z,9.82
2023-05-08T13:31:58.567Z,9.38
2023-05-08T13:37:00.748Z,9.20
2023-05-08T13:42:02.725Z,9.30
2023-05-08T13:47:04.530Z,9.75
2023-05-08T13:52:06.393Z,9.30
2023-05-08T13:57:10.915Z,8.80
2023-05-08T14:02:12.931Z,8.65
2023-05-08T14:07:16.022Z,8.90
2023-05-08T14:12:17.812Z,9.70
2023-05-08T14:17:19.560Z,9.32
2023-05-08T14:22:21.302Z,9.05
2023-05-08T14:27:23.075Z,9.60
2023-05-08T14:32:24.955Z,9.02
2023-05-08T14:37:26.821Z,9.52
2023-05-08T14:42:28.774Z,8.80
2023-05-08T14:47:32.519Z,8.55
2023-05-08T14:52:34.382Z,9.40
2023-05-08T14:57:36.488Z,8.38
2023-05-08T15:02:39.460Z,8.98
2023-05-08T15:07:42.332Z,9.35
2023-05-08T15:12:44.475Z,8.68
2023-05-08T15:17:46.779Z,9.13
2023-05-08T15:22:49.611Z,8.38
2023-05-08T15:27:52.976Z,8.43
2023-05-08T15:32:55.096Z,10.15
2023-05-08T15:38:00.683Z,9.38
2023-05-08T15:43:04.142Z,9.57
2023-05-08T15:48:06.459Z,9.07
2023-05-08T15:53:08.479Z,9.40
2023-05-08T15:58:10.274Z,8.88
2023-05-08T16:03:12.256Z,10.30
2023-05-08T16:08:14.231Z,9.52
2023-05-08T16:13:16.552Z,9.43
2023-05-08T16:18:18.501Z,9.60
2023-05-08T16:23:20.290Z,9.52
2023-05-08T16:28:22.036Z,9.25
2023-05-08T16:33:23.860Z,10.13
2023-05-08T16:38:28.041Z,9.98
2023-05-08T16:43:29.803Z,9.68
2023-05-08T16:48:31.571Z,10.73
2023-05-08T16:53:33.503Z,11.00
2023-05-08T16:58:35.414Z,11.57
2023-05-08T17:03:37.311Z,10.57
2023-05-08T17:08:39.177Z,10.48
2023-05-08T17:13:43.112Z,11.52
2023-05-08T17:18:44.881Z,10.35
2023-05-08T17:23:47.621Z,10.23
2023-05-08T17:28:49.436Z,10.63
2023-05-08T17:33:51.243Z,9.52
2023-05-08T17:38:53.088Z,9.93
2023-05-08T17:43:55.539Z,10.10
2023-05-08T17:48:57.277Z,10.30
2023-05-08T17:53:59.036Z,10.63
2023-05-08T17:59:00.969Z,10.35
2023-05-08T18:04:03.015Z,9.80
2023-05-08T18:09:05.612Z,9.38
2023-05-08T18:14:07.393Z,11.35
2023-05-08T18:19:09.196Z,11.18
2023-05-08T18:24:10.948Z,12.02
2023-05-08T18:29:15.332Z,13.05
2023-05-08T18:34:17.125Z,12.15
2023-05-08T18:39:18.957Z,13.07
2023-05-08T18:44:20.744Z,12.73
2023-05-08T18:49:22.705Z,12.57
2023-05-08T18:54:26.942Z,8.98
2023-05-08T18:59:29.011Z,11.73
2023-05-08T19:04:30.867Z,13.27
2023-05-08T19:09:34.028Z,12.48
2023-05-08T19:14:35.926Z,14.52
2023-05-08T19:19:37.718Z,12.45
2023-05-08T19:24:39.929Z,12.10
2023-05-08T19:29:41.756Z,12.27
2023-05-08T19:34:43.518Z,12.30
2023-05-08T19:39:45.305Z,13.50
2023-05-08T19:44:47.211Z,12.82
2023-05-08T19:49:49.855Z,12.75
2023-05-08T19:54:51.582Z,11.20
2023-05-08T19:59:53.322Z,12.63
2023-05-08T20:05:21.160Z,12.43
2023-05-08T20:10:16.872Z,13.68
2023-05-08T20:15:18.772Z,17.40
2023-05-08T20:20:20.536Z,12.98
2023-05-08T20:25:22.475Z,15.15
2023-05-08T20:30:24.329Z,17.67
2023-05-08T20:35:26.134Z,16.40
2023-05-08T20:40:28.174Z,15.30
2023-05-08T20:45:30.014Z,15.73
2023-05-08T20:50:31.898Z,17.45
2023-05-08T20:55:33.649Z,14.60
2023-05-08T21:00:35.754Z,13.43
2023-05-08T21:05:37.487Z,16.23
2023-05-08T21:10:39.678Z,14.30
2023-05-08T21:15:41.450Z,15.95
2023-05-08T21:20:50.016Z,14.45
2023-05-08T21:25:53.111Z,14.57
2023-05-08T21:30:54.959Z,14.63
2023-05-08T21:35:56.758Z,12.48
2023-05-08T21:41:06.422Z,15.15
2023-05-08T21:46:09.276Z,13.13
2023-05-08T21:51:11.364Z,14.05
2023-05-08T21:56:13.101Z,12.00
2023-05-08T22:01:14.969Z,12.70
2023-05-08T22:06:16.804Z,11.75
2023-05-08T22:11:18.620Z,17.85
2023-05-08T22:16:20.424Z,11.73
2023-05-08T22:21:22.320Z,13.77
2023-05-08T22:26:24.195Z,15.88
2023-05-08T22:31:26.021Z,15.30
2023-05-08T22:36:28.020Z,13.68
2023-05-08T22:41:30.557Z,13.43
2023-05-08T22:46:33.922Z,15.23
2023-05-08T22:51:36.189Z,16.70
2023-05-08T22:56:38.339Z,16.20
2023-05-08T23:01:40.363Z,13.35
2023-05-08T23:06:42.269Z,24.67
2023-05-08T23:11:44.166Z,15.73
2023-05-08T23:16:46.266Z,17.30
2023-05-08T23:21:51.033Z,14.43
2023-05-08T23:26:53.278Z,13.90
2023-05-08T23:31:55.375Z,14.70
2023-05-08T23:36:57.212Z,14.02
2023-05-08T23:41:58.983Z,12.30
2023-05-08T23:47:01.330Z,14.23
2023-05-08T23:52:03.085Z,18.30
2023-05-08T23:57:05.825Z,13.20
